Time;durP1;ratioP1;P1;durP2;ratioP2;P2;SDS_P1;SDS_P2;PMS_P1;PMS_P2;Temp;Humidity;BMP_temperature;BMP_pressure;BME280_temperature;BME280_humidity;BME280_pressure;Samples;Min_cycle;Max_cycle;Signal;HPM_P1;HPM_P2
2022/07/26 00:00:33;;;;;;;1999.90;999.90;;;17.40;99.90;;;;;;5039654;28;20119;-74
2022/07/26 00:02:58;;;;;;;1999.90;999.90;;;17.40;99.90;;;;;;5047343;28;20048;-74
2022/07/26 00:05:24;;;;;;;1999.90;999.90;;;17.40;99.90;;;;;;5038648;28;20499;-74
2022/07/26 00:07:49;;;;;;;1999.90;999.90;;;17.40;99.90;;;;;;5043651;28;20188;-74
2022/07/26 00:10:15;;;;;;;1999.90;999.90;;;17.40;99.90;;;;;;5032562;28;20155;-74
2022/07/26 00:13:01;;;;;;;1999.90;999.90;;;17.50;99.90;;;;;;5039483;28;20059;-74
2022/07/26 00:15:29;;;;;;;1999.90;999.90;;;17.50;99.90;;;;;;4990223;28;20046;-74
2022/07/26 00:17:54;;;;;;;1999.90;999.90;;;17.50;99.90;;;;;;4955318;28;20189;-74
2022/07/26 00:20:20;;;;;;;1999.90;999.90;;;17.40;99.90;;;;;;4944227;28;20129;-74
2022/07/26 00:22:48;;;;;;;1999.90;999.90;;;17.40;99.90;;;;;;4937992;28;20042;-74
2022/07/26 00:25:16;;;;;;;1999.90;999.90;;;17.40;99.90;;;;;;4957399;28;20064;-74
2022/07/26 00:27:42;;;;;;;1999.90;999.90;;;17.40;99.90;;;;;;4957392;28;20586;-74
2022/07/26 00:30:09;;;;;;;1999.90;999.90;;;17.40;99.90;;;;;;4950865;28;20078;-74
2022/07/26 00:32:35;;;;;;;1999.90;999.90;;;17.30;99.90;;;;;;4986418;28;20060;-74
2022/07/26 00:35:01;;;;;;;1999.90;999.90;;;17.30;99.90;;;;;;4992798;28;20124;-74
2022/07/26 00:37:26;;;;;;;1999.90;999.90;;;17.20;99.90;;;;;;5012168;28;20124;-74
2022/07/26 00:39:52;;;;;;;1999.90;999.90;;;17.30;99.90;;;;;;5010843;28;20231;-74
2022/07/26 00:42:17;;;;;;;1999.90;999.90;;;17.30;99.90;;;;;;5012219;28;20041;-74
2022/07/26 00:44:45;;;;;;;1999.90;999.90;;;17.20;99.90;;;;;;5012330;28;20527;-74
2022/07/26 00:47:11;;;;;;;1999.90;999.90;;;17.30;99.90;;;;;;4994353;28;20056;-74
2022/07/26 00:49:37;;;;;;;1999.90;999.90;;;17.30;99.90;;;;;;4986685;28;20048;-74
2022/07/26 00:52:07;;;;;;;1999.90;999.90;;;17.30;99.90;;;;;;5024755;27;20047;-74
2022/07/26 00:54:33;;;;;;;1999.90;999.90;;;17.30;99.90;;;;;;5113897;27;20039;-74
2022/07/26 00:56:59;;;;;;;1999.90;999.90;;;17.30;99.90;;;;;;5097185;27;20039;-74
2022/07/26 00:59:25;;;;;;;1999.90;999.90;;;17.40;99.90;;;;;;5096676;27;20091;-74
2022/07/26 01:01:50;;;;;;;1999.90;999.90;;;17.40;99.90;;;;;;5108736;28;20043;-74
2022/07/26 01:04:16;;;;;;;1999.90;999.90;;;17.40;99.90;;;;;;5091996;27;20482;-75
2022/07/26 01:06:42;;;;;;;1999.90;999.90;;;17.40;99.90;;;;;;5106937;28;20043;-74
2022/07/26 01:09:08;;;;;;;1999.90;999.90;;;17.40;99.90;;;;;;5107015;27;20035;-74
2022/07/26 01:11:34;;;;;;;1999.90;999.90;;;17.40;99.90;;;;;;5085963;27;20761;-74
2022/07/26 01:13:59;;;;;;;1999.90;999.90;;;17.40;99.90;;;;;;5095059;27;20047;-74
2022/07/26 01:16:25;;;;;;;1999.90;999.90;;;17.40;99.90;;;;;;5111983;27;20068;-74
2022/07/26 01:18:51;;;;;;;1999.90;999.90;;;17.40;99.90;;;;;;5110597;27;20039;-74
2022/07/26 01:21:17;;;;;;;1999.90;999.90;;;17.40;99.90;;;;;;5093143;27;20043;-74
2022/07/26 01:23:43;;;;;;;1999.90;999.90;;;17.50;99.90;;;;;;5096051;27;20039;-74
2022/07/26 01:26:09;;;;;;;1999.90;999.90;;;17.50;99.90;;;;;;5102903;27;20047;-74
2022/07/26 01:28:39;;;;;;;1999.90;999.90;;;17.50;99.90;;;;;;5094984;27;20039;-74
2022/07/26 01:31:06;;;;;;;1999.90;999.90;;;17.50;99.90;;;;;;5094829;27;20483;-74
2022/07/26 01:33:32;;;;;;;1999.90;999.90;;;17.50;99.90;;;;;;5095636;27;20148;-74
2022/07/26 01:35:58;;;;;;;1999.90;999.90;;;17.50;99.90;;;;;;5103153;28;20090;-75
2022/07/26 01:38:24;;;;;;;1999.90;999.90;;;17.50;99.90;;;;;;5110494;27;20088;-74
2022/07/26 01:40:50;;;;;;;1999.90;999.90;;;17.60;99.90;;;;;;5090357;28;20043;-74
2022/07/26 01:43:16;;;;;;;1999.90;999.90;;;17.60;99.90;;;;;;5106538;28;20438;-74
2022/07/26 01:45:41;;;;;;;1999.90;999.90;;;17.60;99.90;;;;;;5110747;27;20039;-74
2022/07/26 01:48:07;;;;;;;1999.90;999.90;;;17.60;99.90;;;;;;5090559;28;20039;-75
2022/07/26 01:50:34;;;;;;;1999.90;999.90;;;17.60;99.90;;;;;;5106464;27;20088;-74
2022/07/26 01:52:59;;;;;;;1999.90;999.90;;;17.60;99.90;;;;;;5111372;27;20046;-74
2022/07/26 01:55:25;;;;;;;1999.90;999.90;;;17.60;99.90;;;;;;5111312;27;20035;-74
2022/07/26 01:57:51;;;;;;;1999.90;999.90;;;17.60;99.90;;;;;;5112983;27;20076;-75
2022/07/26 02:00:16;;;;;;;1999.90;999.90;;;17.60;99.90;;;;;;5095741;27;20053;-74
2022/07/26 02:02:42;;;;;;;1999.90;999.90;;;17.60;99.90;;;;;;5099765;27;20505;-74
2022/07/26 02:05:08;;;;;;;1999.90;999.90;;;17.60;99.90;;;;;;5095146;27;20043;-74
2022/07/26 02:07:39;;;;;;;1999.90;999.90;;;17.60;99.90;;;;;;5095379;27;20035;-74
2022/07/26 02:10:06;;;;;;;1999.90;999.90;;;17.60;99.90;;;;;;5108295;27;20043;-75
2022/07/26 02:12:32;;;;;;;1999.90;999.90;;;17.60;99.90;;;;;;5095052;27;20204;-74
2022/07/26 02:14:58;;;;;;;1999.90;999.90;;;17.50;99.90;;;;;;5091200;28;20131;-74
2022/07/26 02:17:24;;;;;;;1999.90;999.90;;;17.50;99.90;;;;;;5110402;27;20040;-75
2022/07/26 02:19:50;;;;;;;1999.90;999.90;;;17.50;99.90;;;;;;5094179;27;20039;-75
2022/07/26 02:22:17;;;;;;;1999.90;999.90;;;17.60;99.90;;;;;;5094950;27;20046;-74
2022/07/26 02:24:43;;;;;;;1999.90;999.90;;;17.60;99.90;;;;;;5087014;27;20038;-74
2022/07/26 02:27:08;;;;;;;1999.90;999.90;;;17.60;99.90;;;;;;5111839;27;20047;-77
2022/07/26 02:29:34;;;;;;;1999.90;999.90;;;17.60;99.90;;;;;;5091199;27;20553;-78
2022/07/26 02:32:00;;;;;;;1999.90;999.90;;;17.60;99.90;;;;;;5111349;27;20118;-78
2022/07/26 02:34:26;;;;;;;1999.90;999.90;;;17.50;99.90;;;;;;5109147;27;20062;-78
2022/07/26 02:36:52;;;;;;;1999.90;999.90;;;17.40;99.90;;;;;;5083853;27;20084;-78
2022/07/26 02:39:18;;;;;;;1999.90;999.90;;;17.30;99.90;;;;;;5111010;27;20055;-78
2022/07/26 02:41:44;;;;;;;1999.90;999.90;;;17.20;99.90;;;;;;5098143;28;20051;-78
2022/07/26 02:44:09;;;;;;;1999.90;999.90;;;17.10;99.90;;;;;;5115776;27;20088;-79
2022/07/26 02:46:36;;;;;;;1999.90;999.90;;;17.10;99.90;;;;;;5130113;27;20045;-79
2022/07/26 02:49:02;;;;;;;1999.90;999.90;;;17.00;99.90;;;;;;5129459;27;20046;-79
2022/07/26 02:51:27;;;;;;;1999.90;999.90;;;16.90;99.90;;;;;;5128867;27;20815;-79
2022/07/26 02:53:53;;;;;;;1999.90;999.90;;;16.80;99.90;;;;;;5123495;27;20043;-79
2022/07/26 02:56:19;;;;;;;1999.90;999.90;;;16.70;99.90;;;;;;5109729;27;20041;-79
2022/07/26 02:58:45;;;;;;;1999.90;999.90;;;16.70;99.90;;;;;;5099371;27;20143;-78
2022/07/26 03:01:11;;;;;;;1999.90;999.90;;;16.70;99.90;;;;;;5122566;27;20126;-79
2022/07/26 03:03:37;;;;;;;1999.90;999.90;;;16.60;99.90;;;;;;5109482;28;20039;-78
2022/07/26 03:06:02;;;;;;;1999.90;999.90;;;16.60;99.90;;;;;;5124631;27;20039;-78
2022/07/26 03:08:28;;;;;;;1999.90;999.90;;;16.60;99.90;;;;;;5112445;27;20138;-79
2022/07/26 03:10:54;;;;;;;1999.90;999.90;;;16.60;99.90;;;;;;5111297;27;20110;-77
2022/07/26 03:13:20;;;;;;;1999.90;999.90;;;16.60;99.90;;;;;;5111738;27;20039;-78
2022/07/26 03:15:46;;;;;;;1999.90;999.90;;;16.60;99.90;;;;;;5097544;27;20118;-78
2022/07/26 03:18:11;;;;;;;1999.90;999.90;;;16.60;99.90;;;;;;5129839;27;20138;-78
2022/07/26 03:20:37;;;;;;;1999.90;999.90;;;16.50;99.90;;;;;;5111325;27;20041;-78
2022/07/26 03:23:02;;;;;;;1999.90;999.90;;;16.50;99.90;;;;;;5106639;27;20031;-79
2022/07/26 03:25:28;;;;;;;1999.90;999.90;;;16.50;99.90;;;;;;5110980;28;20069;-78
2022/07/26 03:27:57;;;;;;;1999.90;999.90;;;16.50;99.90;;;;;;5130063;27;20092;-79
2022/07/26 03:30:23;;;;;;;1999.90;999.90;;;16.50;99.90;;;;;;5128611;27;20036;-78
2022/07/26 03:32:49;;;;;;;1999.90;999.90;;;16.50;99.90;;;;;;5110759;28;20421;-78
2022/07/26 03:35:15;;;;;;;1999.90;999.90;;;16.50;99.90;;;;;;5119146;27;20275;-78
2022/07/26 03:37:41;;;;;;;1999.90;999.90;;;16.50;99.90;;;;;;5091747;28;20034;-78
2022/07/26 03:40:07;;;;;;;1999.90;999.90;;;16.40;99.90;;;;;;5100014;28;20078;-78
2022/07/26 03:42:34;;;;;;;1999.90;999.90;;;16.30;99.90;;;;;;5124264;28;20050;-78
2022/07/26 03:45:00;;;;;;;1999.90;999.90;;;16.30;99.90;;;;;;5129434;27;20471;-78
2022/07/26 03:47:26;;;;;;;1999.90;999.90;;;16.20;99.90;;;;;;5112247;27;20077;-78
2022/07/26 03:49:51;;;;;;;1999.90;999.90;;;16.20;99.90;;;;;;5130610;27;20443;-78
2022/07/26 03:52:17;;;;;;;1999.90;999.90;;;16.20;99.90;;;;;;5115406;27;20042;-78
2022/07/26 03:54:42;;;;;;;1999.90;999.90;;;16.20;99.90;;;;;;5131233;27;20040;-77
2022/07/26 03:57:08;;;;;;;1999.90;999.90;;;16.20;99.90;;;;;;5114901;27;20071;-78
2022/07/26 03:59:34;;;;;;;1999.90;999.90;;;16.20;99.90;;;;;;5133409;27;20058;-78
2022/07/26 04:02:00;;;;;;;1999.90;999.90;;;16.10;99.90;;;;;;5114591;27;20047;-78
2022/07/26 04:04:26;;;;;;;1999.90;999.90;;;16.10;99.90;;;;;;5125369;27;20043;-78
2022/07/26 04:06:51;;;;;;;1999.90;999.90;;;16.10;99.90;;;;;;5128584;27;20526;-78
2022/07/26 04:09:17;;;;;;;1999.90;999.90;;;16.10;99.90;;;;;;5104788;27;20073;-78
2022/07/26 04:11:43;;;;;;;1999.90;999.90;;;16.10;99.90;;;;;;5130883;27;20043;-78
2022/07/26 04:14:09;;;;;;;1999.90;999.90;;;16.10;99.90;;;;;;5113315;27;20149;-78
2022/07/26 04:16:35;;;;;;;1999.90;999.90;;;16.10;99.90;;;;;;5132963;27;20118;-78
2022/07/26 04:19:01;;;;;;;1999.90;999.90;;;16.10;99.90;;;;;;5132747;27;20042;-78
2022/07/26 04:21:27;;;;;;;1999.90;999.90;;;16.10;99.90;;;;;;5113604;27;20039;-78
2022/07/26 04:23:53;;;;;;;1999.90;999.90;;;16.10;99.90;;;;;;5126442;27;20053;-78
2022/07/26 04:26:20;;;;;;;1999.90;999.90;;;16.10;99.90;;;;;;5097111;27;20092;-78
2022/07/26 04:28:46;;;;;;;1999.90;999.90;;;16.10;99.90;;;;;;5096491;27;20480;-78
2022/07/26 04:31:11;;;;;;;1999.90;999.90;;;16.10;99.90;;;;;;5131272;27;20502;-78
2022/07/26 04:33:37;;;;;;;1999.90;999.90;;;16.10;99.90;;;;;;5132410;27;20126;-77
2022/07/26 04:36:03;;;;;;;1999.90;999.90;;;16.20;99.90;;;;;;5113601;27;20035;-78
2022/07/26 04:38:30;;;;;;;1999.90;999.90;;;16.20;99.90;;;;;;5108850;28;20059;-78
2022/07/26 04:40:56;;;;;;;1999.90;999.90;;;16.20;99.90;;;;;;5131705;28;20055;-78
2022/07/26 04:43:23;;;;;;;1999.90;999.90;;;16.30;99.90;;;;;;5110601;28;20054;-78
2022/07/26 04:45:48;;;;;;;1999.90;999.90;;;16.20;99.90;;;;;;5129899;27;20039;-78
2022/07/26 04:48:15;;;;;;;1999.90;999.90;;;16.30;99.90;;;;;;5112442;28;20498;-77
2022/07/26 04:50:41;;;;;;;1999.90;999.90;;;16.30;99.90;;;;;;5128399;28;20047;-77
2022/07/26 04:53:09;;;;;;;1999.90;999.90;;;16.20;99.90;;;;;;5131241;28;20083;-78
2022/07/26 04:55:35;;;;;;;1999.90;999.90;;;16.20;99.90;;;;;;5130193;28;20047;-77
2022/07/26 04:58:01;;;;;;;1999.90;999.90;;;16.20;99.90;;;;;;5111909;28;20035;-78
2022/07/26 05:00:26;;;;;;;1999.90;999.90;;;16.20;99.90;;;;;;5110016;28;20495;-77
2022/07/26 05:02:57;;;;;;;1999.90;999.90;;;16.20;99.90;;;;;;5130812;28;20042;-78
2022/07/26 05:05:24;;;;;;;1999.90;999.90;;;16.20;99.90;;;;;;5130583;27;20420;-78
2022/07/26 05:07:52;;;;;;;1999.90;999.90;;;16.30;99.90;;;;;;5099751;28;20354;-78
2022/07/26 05:10:19;;;;;;;1999.90;999.90;;;16.30;99.90;;;;;;5128353;27;20055;-78
2022/07/26 05:12:46;;;;;;;1999.90;999.90;;;16.30;99.90;;;;;;5127684;28;20039;-78
2022/07/26 05:15:12;;;;;;;1999.90;999.90;;;16.30;99.90;;;;;;5109345;28;20061;-78
2022/07/26 05:17:38;;;;;;;1999.90;999.90;;;16.30;99.90;;;;;;5109139;28;20035;-78
2022/07/26 05:20:09;;;;;;;1999.90;999.90;;;16.30;99.90;;;;;;5129871;27;20074;-78
2022/07/26 05:22:35;;;;;;;1999.90;999.90;;;16.30;99.90;;;;;;5107754;28;20047;-78
2022/07/26 05:25:02;;;;;;;1999.90;999.90;;;16.10;99.90;;;;;;5124803;28;20391;-77
2022/07/26 05:27:27;;;;;;;1999.90;999.90;;;16.00;99.90;;;;;;5110038;28;20043;-78
2022/07/26 05:29:54;;;;;;;1999.90;999.90;;;15.90;99.90;;;;;;5130463;28;20053;-77
2022/07/26 05:32:21;;;;;;;1999.90;999.90;;;15.90;99.90;;;;;;5128189;28;20042;-78
2022/07/26 05:34:46;;;;;;;1999.90;999.90;;;15.90;99.90;;;;;;5112448;28;20043;-78
2022/07/26 05:37:12;;;;;;;1999.90;999.90;;;15.90;99.90;;;;;;5111720;28;20043;-78
2022/07/26 05:39:37;;;;;;;1999.90;999.90;;;15.90;99.90;;;;;;4548926;28;15087300;-77
2022/07/26 05:42:03;;;;;;;1999.90;999.90;;;15.90;99.90;;;;;;5106459;27;20049;-78
2022/07/26 05:44:29;;;;;;;1999.90;999.90;;;15.90;99.90;;;;;;5113141;27;20045;-78
2022/07/26 05:46:54;;;;;;;1999.90;999.90;;;16.00;99.90;;;;;;5129790;27;20088;-78
2022/07/26 05:49:20;;;;;;;1999.90;999.90;;;16.00;99.90;;;;;;5104407;27;20079;-78
2022/07/26 05:51:45;;;;;;;1999.90;999.90;;;16.10;99.90;;;;;;5093183;27;20451;-78
2022/07/26 05:54:11;;;;;;;1999.90;999.90;;;16.20;99.90;;;;;;5129396;27;20043;-78
2022/07/26 05:56:37;;;;;;;1999.90;999.90;;;16.20;99.90;;;;;;5092687;27;20066;-78
2022/07/26 05:59:03;;;;;;;1999.90;999.90;;;16.30;99.90;;;;;;5121875;27;20086;-77
2022/07/26 06:01:31;;;;;;;1999.90;999.90;;;16.30;99.90;;;;;;5095554;27;20062;-77
2022/07/26 06:03:57;;;;;;;1999.90;999.90;;;16.20;99.90;;;;;;5091624;27;20452;-77
2022/07/26 06:06:24;;;;;;;1999.90;999.90;;;16.20;99.90;;;;;;5115372;27;20042;-78
2022/07/26 06:08:49;;;;;;;1999.90;999.90;;;16.20;99.90;;;;;;5105453;27;20049;-77
2022/07/26 06:11:18;;;;;;;1999.90;999.90;;;16.30;99.90;;;;;;5132829;27;20114;-78
2022/07/26 06:13:43;;;;;;;1999.90;999.90;;;16.20;99.90;;;;;;5091882;27;20467;-77
2022/07/26 06:16:09;;;;;;;1999.90;999.90;;;16.30;99.90;;;;;;5124482;27;20034;-78
2022/07/26 06:18:35;;;;;;;1999.90;999.90;;;16.40;99.90;;;;;;5115229;27;20523;-78
2022/07/26 06:21:00;;;;;;;1999.90;999.90;;;16.50;99.90;;;;;;5108386;27;20083;-79
2022/07/26 06:23:26;;;;;;;1999.90;999.90;;;16.50;99.90;;;;;;5098266;27;20060;-78
2022/07/26 06:25:51;;;;;;;1999.90;999.90;;;16.60;99.90;;;;;;5113278;27;20037;-78
2022/07/26 06:28:17;;;;;;;1999.90;999.90;;;16.60;99.90;;;;;;5114452;27;20047;-78
2022/07/26 06:30:44;;;;;;;1999.90;999.90;;;16.60;99.90;;;;;;5099191;27;20126;-78
2022/07/26 06:33:10;;;;;;;1999.90;999.90;;;16.60;99.90;;;;;;5113663;27;20054;-79
2022/07/26 06:35:37;;;;;;;1999.90;999.90;;;16.70;99.90;;;;;;5111962;27;20042;-78
2022/07/26 06:38:04;;;;;;;1999.90;999.90;;;16.70;99.90;;;;;;5087647;28;20086;-78
2022/07/26 06:40:32;;;;;;;1999.90;999.90;;;16.70;99.90;;;;;;5099880;27;20045;-78
2022/07/26 06:42:58;;;;;;;1999.90;999.90;;;16.90;99.90;;;;;;5115006;27;20121;-78
2022/07/26 06:45:24;;;;;;;1999.90;999.90;;;17.00;99.90;;;;;;5095096;27;20030;-78
2022/07/26 06:47:50;;;;;;;1999.90;999.90;;;17.10;99.90;;;;;;5096906;27;20037;-79
2022/07/26 06:50:16;;;;;;;1999.90;999.90;;;17.20;99.90;;;;;;5096099;27;20179;-79
2022/07/26 06:52:43;;;;;;;1999.90;999.90;;;17.20;99.90;;;;;;5108875;27;20588;-76
2022/07/26 06:55:09;;;;;;;1999.90;999.90;;;17.00;99.90;;;;;;5098392;27;20047;-78
2022/07/26 06:57:35;;;;;;;1999.90;999.90;;;17.00;99.90;;;;;;5111654;27;20104;-78
2022/07/26 07:00:05;;;;;;;1999.90;999.90;;;16.90;99.90;;;;;;5103878;27;20093;-78
2022/07/26 07:02:31;;;;;;;1999.90;999.90;;;16.90;99.90;;;;;;5104255;27;20034;-78
2022/07/26 07:04:56;;;;;;;1999.90;999.90;;;16.90;99.90;;;;;;5105731;27;20391;-79
2022/07/26 07:07:22;;;;;;;1999.90;999.90;;;16.90;99.90;;;;;;5102341;28;20039;-78
2022/07/26 07:09:48;;;;;;;1999.90;999.90;;;17.00;99.90;;;;;;5093468;27;20039;-78
2022/07/26 07:12:14;;;;;;;1999.90;999.90;;;17.10;99.90;;;;;;5120374;27;20167;-78
2022/07/26 07:14:40;;;;;;;1999.90;999.90;;;17.30;99.90;;;;;;5107650;27;20554;-79
2022/07/26 07:17:06;;;;;;;1999.90;999.90;;;17.40;99.90;;;;;;5107233;28;20043;-78
2022/07/26 07:19:35;;;;;;;1999.90;999.90;;;17.40;99.90;;;;;;5101867;27;20043;-78
2022/07/26 07:22:01;;;;;;;1999.90;999.90;;;17.50;99.90;;;;;;5110118;27;20502;-78
2022/07/26 07:24:27;;;;;;;1999.90;999.90;;;17.70;99.90;;;;;;5084050;27;20092;-78
2022/07/26 07:26:52;;;;;;;1999.90;999.90;;;17.80;99.90;;;;;;5110905;27;20741;-78
2022/07/26 07:29:19;;;;;;;1999.90;999.90;;;18.00;99.90;;;;;;5096833;27;20041;-78
2022/07/26 07:31:46;;;;;;;1999.90;999.90;;;18.10;99.90;;;;;;5115987;27;20043;-78
2022/07/26 07:34:13;;;;;;;1999.90;999.90;;;18.20;99.90;;;;;;5119844;27;20038;-77
2022/07/26 07:36:39;;;;;;;1999.90;999.90;;;18.30;99.90;;;;;;5105320;28;20122;-78
2022/07/26 07:39:04;;;;;;;1999.90;999.90;;;18.40;99.90;;;;;;5098943;28;20137;-78
2022/07/26 07:41:33;;;;;;;1999.90;999.90;;;18.40;99.90;;;;;;5117604;27;20099;-79
2022/07/26 07:43:59;;;;;;;1999.90;999.90;;;18.50;99.90;;;;;;5141021;27;20043;-78
2022/07/26 07:46:25;;;;;;;1999.90;999.90;;;18.60;99.90;;;;;;5119365;27;20059;-78
2022/07/26 07:48:51;;;;;;;1999.90;999.90;;;18.60;99.90;;;;;;5136272;27;20038;-77
2022/07/26 07:51:17;;;;;;;1999.90;999.90;;;18.60;99.90;;;;;;5137197;27;20769;-78
2022/07/26 07:53:43;;;;;;;1999.90;999.90;;;18.50;99.90;;;;;;5102802;28;20043;-77
2022/07/26 07:56:09;;;;;;;1999.90;999.90;;;18.20;99.90;;;;;;5099501;28;20104;-77
2022/07/26 07:58:34;;;;;;;1999.90;999.90;;;17.90;99.90;;;;;;5113158;28;20088;-77
2022/07/26 08:01:00;;;;;;;1999.90;999.90;;;17.50;99.90;;;;;;5130843;27;20038;-77
2022/07/26 08:03:26;;;;;;;1999.90;999.90;;;17.30;99.90;;;;;;5139284;27;20448;-77
2022/07/26 08:05:51;;;;;;;1999.90;999.90;;;17.10;99.90;;;;;;5124404;27;20043;-77
2022/07/26 08:08:19;;;;;;;1999.90;999.90;;;17.10;99.90;;;;;;5115274;28;20472;-78
2022/07/26 08:10:44;;;;;;;1999.90;999.90;;;17.10;99.90;;;;;;5078761;28;20048;-77
2022/07/26 08:13:10;;;;;;;1999.90;999.90;;;17.40;99.90;;;;;;5105228;28;20046;-77
2022/07/26 08:15:36;;;;;;;1999.90;999.90;;;17.60;99.90;;;;;;5110945;28;20031;-77
2022/07/26 08:18:02;;;;;;;1999.90;999.90;;;17.90;99.90;;;;;;5109005;28;20139;-77
2022/07/26 08:20:27;;;;;;;1999.90;999.90;;;18.20;99.90;;;;;;5127742;28;20054;-78
2022/07/26 08:22:53;;;;;;;1999.90;999.90;;;18.40;99.90;;;;;;5110772;28;20043;-78
2022/07/26 08:25:19;;;;;;;1999.90;999.90;;;18.50;99.90;;;;;;5111901;28;20495;-78
2022/07/26 08:27:45;;;;;;;1999.90;999.90;;;18.40;99.90;;;;;;5109725;28;20066;-77
2022/07/26 08:30:11;;;;;;;1999.90;999.90;;;18.20;99.90;;;;;;5092079;28;20090;-77
2022/07/26 08:32:37;;;;;;;1999.90;999.90;;;18.10;99.90;;;;;;5131264;27;20390;-77
2022/07/26 08:35:03;;;;;;;1999.90;999.90;;;17.90;99.90;;;;;;5114789;27;20047;-77
2022/07/26 08:37:28;;;;;;;1999.90;999.90;;;17.80;99.90;;;;;;5101064;27;20043;-77
2022/07/26 08:39:54;;;;;;;1999.90;999.90;;;17.80;99.90;;;;;;5132769;27;20058;-76
2022/07/26 08:42:24;;;;;;;1999.90;999.90;;;17.90;99.90;;;;;;5096842;27;20066;-78
2022/07/26 08:44:50;;;;;;;1999.90;999.90;;;18.00;99.90;;;;;;5105679;27;20043;-76
2022/07/26 08:47:21;;;;;;;1999.90;999.90;;;18.10;99.90;;;;;;5106982;27;20132;-77
2022/07/26 08:49:46;;;;;;;1999.90;999.90;;;18.20;99.90;;;;;;5096948;27;20383;-77
2022/07/26 08:52:13;;;;;;;1999.90;999.90;;;18.40;99.90;;;;;;5114174;27;20067;-77
2022/07/26 08:54:44;;;;;;;1999.90;999.90;;;18.50;99.90;;;;;;5123514;27;20039;-77
2022/07/26 08:57:09;;;;;;;1999.90;999.90;;;18.60;99.90;;;;;;5105952;27;20483;-77
2022/07/26 08:59:35;;;;;;;1999.90;999.90;;;18.60;99.90;;;;;;5113906;27;20039;-76
2022/07/26 09:02:11;;;;;;;1999.90;999.90;;;18.40;99.90;;;;;;5110187;28;20065;-76
2022/07/26 09:04:40;;;;;;;1999.90;999.90;;;18.10;99.90;;;;;;5111797;27;20050;-76
2022/07/26 09:07:15;;;;;;;1999.90;999.90;;;17.80;99.90;;;;;;5106954;28;20047;-76
2022/07/26 09:09:59;;;;;;;1999.90;999.90;;;17.60;99.90;;;;;;5107346;27;20514;-77
2022/07/26 09:12:27;;;;;;;1999.90;999.90;;;17.40;99.90;;;;;;5092846;28;20032;-76
2022/07/26 09:14:53;;;;;;;1999.90;999.90;;;17.40;99.90;;;;;;5090832;27;20083;-76
2022/07/26 09:17:21;;;;;;;1999.90;999.90;;;17.50;99.90;;;;;;5100637;27;20505;-76
2022/07/26 09:20:08;;;;;;;1999.90;999.90;;;17.60;99.90;;;;;;5113767;27;20038;-76
2022/07/26 09:22:34;;;;;;;1999.90;999.90;;;18.00;99.90;;;;;;5096414;27;20039;-76
2022/07/26 09:25:00;;;;;;;1999.90;999.90;;;18.50;99.90;;;;;;5091770;27;20074;-77
2022/07/26 09:27:34;;;;;;;1999.90;999.90;;;18.70;99.90;;;;;;5112769;27;20039;-76
2022/07/26 09:30:05;;;;;;;1999.90;999.90;;;18.80;99.90;;;;;;5090099;28;20460;-77
2022/07/26 09:32:31;;;;;;;1999.90;999.90;;;18.70;99.90;;;;;;5095659;27;20084;-77
2022/07/26 09:35:12;;;;;;;1999.90;999.90;;;18.70;99.90;;;;;;5113263;27;20478;-76
2022/07/26 09:37:39;;;;;;;1999.90;999.90;;;18.60;99.90;;;;;;5112914;27;20119;-76
2022/07/26 09:40:26;;;;;;;1999.90;999.90;;;18.50;99.90;;;;;;5089124;27;20055;-75
2022/07/26 09:43:02;;;;;;;1999.90;999.90;;;18.50;99.90;;;;;;5049682;28;20048;-77
2022/07/26 09:45:30;;;;;;;1999.90;999.90;;;18.70;99.90;;;;;;5050513;28;20420;-76
2022/07/26 09:47:56;;;;;;;1999.90;999.90;;;18.80;99.90;;;;;;5044878;28;20163;-73
2022/07/26 09:50:24;;;;;;;1999.90;999.90;;;19.10;99.90;;;;;;5034230;28;20127;-76
2022/07/26 09:53:00;;;;;;;1999.90;999.90;;;19.20;99.90;;;;;;5034080;28;20238;-76
2022/07/26 09:55:27;;;;;;;1999.90;999.90;;;19.20;99.90;;;;;;5066955;28;20080;-76
2022/07/26 09:57:53;;;;;;;1999.90;999.90;;;19.20;99.90;;;;;;5042155;28;20044;-75
2022/07/26 10:00:18;;;;;;;1999.90;999.90;;;19.30;99.90;;;;;;5050847;28;20055;-76
2022/07/26 10:02:44;;;;;;;1999.90;999.90;;;19.40;99.90;;;;;;5048803;28;20059;-73
2022/07/26 10:05:10;;;;;;;1999.90;999.90;;;19.50;99.90;;;;;;5034285;28;20052;-76
2022/07/26 10:07:36;;;;;;;1999.90;999.90;;;19.30;99.90;;;;;;5046911;28;20052;-77
2022/07/26 10:12:54;;;;;;;1999.90;999.90;;;18.80;99.90;;;;;;4982934;28;20060;-76
2022/07/26 10:15:42;;;;;;;1999.90;999.90;;;18.70;99.90;;;;;;4974450;28;20448;-76
2022/07/26 10:18:09;;;;;;;1999.90;999.90;;;18.80;99.90;;;;;;4974787;28;20480;-75
2022/07/26 10:20:38;;;;;;;1999.90;999.90;;;19.10;99.90;;;;;;4986070;28;20049;-75
2022/07/26 10:23:03;;;;;;;1999.90;999.90;;;19.50;99.90;;;;;;5010244;28;20720;-75
2022/07/26 10:25:29;;;;;;;1999.90;999.90;;;19.90;99.90;;;;;;5010083;28;20041;-75
2022/07/26 10:27:56;;;;;;;1999.90;999.90;;;20.20;99.90;;;;;;4994083;28;20045;-76
2022/07/26 10:30:26;;;;;;;1999.90;999.90;;;20.10;99.90;;;;;;4999156;28;20081;-76
2022/07/26 10:33:11;;;;;;;1999.90;999.90;;;19.90;99.90;;;;;;5008739;28;20064;-75
2022/07/26 10:35:39;;;;;;;1999.90;999.90;;;19.70;99.90;;;;;;5010379;28;20037;-75
2022/07/26 10:38:31;;;;;;;1999.90;999.90;;;19.50;99.90;;;;;;5002763;28;20053;-76
2022/07/26 10:40:59;;;;;;;1999.90;999.90;;;19.60;99.90;;;;;;4980507;28;20502;-75
2022/07/26 10:43:26;;;;;;;1999.90;999.90;;;20.00;99.90;;;;;;4982829;28;20060;-75
2022/07/26 10:46:17;;;;;;;1999.90;999.90;;;20.50;99.90;;;;;;5024598;28;20033;-76
2022/07/26 10:48:55;;;;;;;1999.90;999.90;;;20.60;99.90;;;;;;5008871;28;20048;-75
2022/07/26 10:51:27;;;;;;;1999.90;999.90;;;20.50;99.90;;;;;;5128911;27;20390;-76
2022/07/26 10:54:06;;;;;;;1999.90;999.90;;;20.70;99.90;;;;;;5108424;27;20392;-75
2022/07/26 10:56:32;;;;;;;1999.90;999.90;;;21.30;99.90;;;;;;5089884;27;20038;-75
2022/07/26 10:58:58;;;;;;;1999.90;999.90;;;21.70;99.90;;;;;;5105847;28;20092;-75
2022/07/26 11:01:34;;;;;;;1999.90;999.90;;;21.90;99.90;;;;;;5106360;27;20364;-76
2022/07/26 11:04:00;;;;;;;1999.90;999.90;;;21.80;99.90;;;;;;5105055;27;20380;-75
2022/07/26 11:06:28;;;;;;;1999.90;999.90;;;21.70;99.90;;;;;;5105738;27;20069;-75
2022/07/26 11:08:54;;;;;;;1999.90;999.90;;;21.50;99.90;;;;;;5093561;27;20905;-74
2022/07/26 11:11:31;;;;;;;1999.90;999.90;;;21.30;99.90;;;;;;5106178;27;20130;-75
2022/07/26 11:14:08;;;;;;;1999.90;999.90;;;21.20;99.90;;;;;;5077590;27;20045;-75
2022/07/26 11:16:43;;;;;;;1999.90;999.90;;;21.20;99.90;;;;;;5106926;27;20498;-76
2022/07/26 11:19:14;;;;;;;1999.90;999.90;;;21.30;99.90;;;;;;5103861;28;20380;-75
2022/07/26 11:21:40;;;;;;;1999.90;999.90;;;21.30;99.90;;;;;;5107931;27;20074;-75
2022/07/26 11:24:07;;;;;;;1999.90;999.90;;;21.20;99.90;;;;;;5088958;27;20039;-74
2022/07/26 11:26:42;;;;;;;1999.90;999.90;;;21.00;99.90;;;;;;5108234;27;20049;-75
2022/07/26 11:29:08;;;;;;;1999.90;999.90;;;20.90;99.90;;;;;;5102699;28;20118;-74
2022/07/26 11:32:00;;;;;;;1999.90;999.90;;;20.90;99.90;;;;;;5090015;27;20117;-74
2022/07/26 11:34:28;;;;;;;1999.90;999.90;;;21.40;99.90;;;;;;5093335;28;20039;-74
2022/07/26 11:36:56;;;;;;;1999.90;999.90;;;21.80;99.90;;;;;;5111436;27;20022;-75
2022/07/26 11:39:24;;;;;;;1999.90;999.90;;;21.80;99.90;;;;;;5099558;28;20071;-74
2022/07/26 11:41:55;;;;;;;1999.90;999.90;;;21.50;99.90;;;;;;5110210;28;20058;-74
2022/07/26 11:44:22;;;;;;;1999.90;999.90;;;21.30;99.90;;;;;;5082419;28;20050;-75
2022/07/26 11:46:49;;;;;;;1999.90;999.90;;;21.10;98.70;;;;;;5102817;28;20039;-75
2022/07/26 11:49:19;;;;;;;1999.90;999.90;;;21.10;99.90;;;;;;5093579;28;20120;-75
2022/07/26 11:51:53;;;;;;;1999.90;999.90;;;21.00;99.60;;;;;;5107844;28;20437;-74
2022/07/26 11:54:20;;;;;;;1999.90;999.90;;;21.00;99.90;;;;;;5110013;28;20039;-74
2022/07/26 11:56:56;;;;;;;1999.90;999.90;;;21.00;99.40;;;;;;5105901;28;20036;-72
2022/07/26 11:59:27;;;;;;;1999.90;999.90;;;21.00;99.90;;;;;;5110378;28;20046;-74
2022/07/26 12:01:56;;;;;;;1999.90;999.90;;;20.90;99.90;;;;;;5109201;28;20139;-75